createdAt,value
2018-01-15T00:00:44.320Z,-1.39
2018-01-15T00:01:44.277Z,-1.43
2018-01-15T00:02:44.242Z,-1.47
2018-01-15T00:03:44.210Z,-1.50
2018-01-15T00:04:44.168Z,-1.47
2018-01-15T00:05:44.141Z,-1.50
2018-01-15T00:06:44.098Z,-1.49
2018-01-15T00:07:44.071Z,-1.35
2018-01-15T00:08:44.034Z,-1.50
2018-01-15T00:09:43.990Z,-1.49
2018-01-15T00:10:44.219Z,-1.49
2018-01-15T00:11:43.924Z,-1.51
2018-01-15T00:12:43.887Z,-1.44
2018-01-15T00:13:43.849Z,-1.46
2018-01-15T00:14:43.815Z,-1.36
2018-01-15T00:15:43.786Z,-1.43
2018-01-15T00:16:43.750Z,-1.38
2018-01-15T00:17:43.719Z,-1.41
2018-01-15T00:18:43.672Z,-1.41
2018-01-15T00:19:43.643Z,-1.38
2018-01-15T00:20:43.611Z,-1.36
2018-01-15T00:21:43.580Z,-1.32
2018-01-15T00:22:43.542Z,-1.51
2018-01-15T00:23:43.495Z,-1.47
2018-01-15T00:24:43.474Z,-1.47
2018-01-15T00:25:43.434Z,-1.43
2018-01-15T00:26:43.389Z,-1.46
2018-01-15T00:27:43.353Z,-1.43
2018-01-15T00:28:43.330Z,-1.35
2018-01-15T00:29:43.290Z,-1.43
2018-01-15T00:30:43.248Z,-1.49
2018-01-15T00:31:43.213Z,-1.49
2018-01-15T00:32:43.187Z,-1.46
2018-01-15T00:33:43.140Z,-1.43
2018-01-15T00:34:43.119Z,-1.39
2018-01-15T00:35:43.076Z,-1.36
2018-01-15T00:36:43.047Z,-1.43
2018-01-15T00:37:42.998Z,-1.33
2018-01-15T00:38:43.076Z,-1.36
2018-01-15T00:39:42.928Z,-1.49
2018-01-15T00:40:42.933Z,-1.51
2018-01-15T00:41:42.865Z,-1.44
2018-01-15T00:42:42.838Z,-1.44
2018-01-15T00:43:42.800Z,-1.43
2018-01-15T00:44:42.758Z,-1.36
2018-01-15T00:45:42.974Z,-1.39
2018-01-15T00:46:42.695Z,-1.49
2018-01-15T00:47:42.656Z,-1.36
2018-01-15T00:48:42.621Z,-1.44
2018-01-15T00:49:42.582Z,-1.35
2018-01-15T00:50:42.541Z,-1.44
2018-01-15T00:51:42.816Z,-1.33
2018-01-15T00:52:42.467Z,-1.29
2018-01-15T00:53:42.434Z,-1.46
2018-01-15T00:54:42.405Z,-1.39
2018-01-15T00:55:42.369Z,-1.43
2018-01-15T00:56:42.336Z,-1.36
2018-01-15T00:57:42.292Z,-1.41
2018-01-15T00:58:42.264Z,-1.46
2018-01-15T00:59:42.231Z,-1.43
2018-01-15T01:00:42.191Z,-1.35
2018-01-15T01:01:42.148Z,-1.33
2018-01-15T01:02:42.153Z,-1.35
2018-01-15T01:03:42.079Z,-1.36
2018-01-15T01:04:42.051Z,-1.38
2018-01-15T01:05:42.010Z,-1.38
2018-01-15T01:06:41.982Z,-1.36
2018-01-15T01:07:41.946Z,-1.36
2018-01-15T01:08:41.904Z,-1.28
2018-01-15T01:09:41.871Z,-1.36
2018-01-15T01:10:41.836Z,-1.33
2018-01-15T01:11:41.801Z,-1.35
2018-01-15T01:12:41.763Z,-1.35
2018-01-15T01:13:41.733Z,-1.35
2018-01-15T01:14:41.691Z,-1.33
2018-01-15T01:15:41.959Z,-1.36
2018-01-15T01:16:41.621Z,-1.31
2018-01-15T01:17:41.586Z,-1.41
2018-01-15T01:18:41.551Z,-1.35
2018-01-15T01:19:41.522Z,-1.39
2018-01-15T01:20:41.489Z,-1.36
2018-01-15T01:21:41.443Z,-1.36
2018-01-15T01:22:41.412Z,-1.39
2018-01-15T01:23:41.369Z,-1.32
2018-01-15T01:24:41.340Z,-1.32
2018-01-15T01:25:41.308Z,-1.33
2018-01-15T01:26:41.270Z,-1.25
2018-01-15T01:27:41.229Z,-1.36
2018-01-15T01:28:41.198Z,-1.33
2018-01-15T01:29:41.158Z,-1.41
2018-01-15T01:30:41.134Z,-1.38
2018-01-15T01:31:41.095Z,-1.31
2018-01-15T01:32:41.054Z,-1.39
2018-01-15T01:33:41.020Z,-1.29
2018-01-15T01:34:40.993Z,-1.32
2018-01-15T01:35:40.944Z,-1.31
2018-01-15T01:36:40.909Z,-1.41
2018-01-15T01:37:40.888Z,-1.43
2018-01-15T01:38:40.851Z,-1.33
2018-01-15T01:39:40.807Z,-1.35
2018-01-15T01:40:40.768Z,-1.41
2018-01-15T01:41:40.745Z,-1.32
2018-01-15T01:42:40.704Z,-1.33
2018-01-15T01:43:40.661Z,-1.32
2018-01-15T01:44:40.629Z,-1.28
2018-01-15T01:45:40.600Z,-1.31
2018-01-15T01:46:40.559Z,-1.41
2018-01-15T01:47:40.524Z,-1.32
2018-01-15T01:48:40.484Z,-1.28
2018-01-15T01:49:40.451Z,-1.31
2018-01-15T01:50:40.414Z,-1.35
2018-01-15T01:51:40.680Z,-1.35
2018-01-15T01:52:40.351Z,-1.31
2018-01-15T01:53:40.315Z,-1.39
2018-01-15T01:54:40.278Z,-1.33
2018-01-15T01:55:40.236Z,-1.32
2018-01-15T01:56:40.202Z,-1.28
2018-01-15T01:57:40.170Z,-1.36
2018-01-15T01:58:40.133Z,-1.26
2018-01-15T01:59:40.103Z,-1.26
2018-01-15T02:00:40.072Z,-1.18
2018-01-15T02:01:40.037Z,-1.32
2018-01-15T02:02:40.000Z,-1.32
2018-01-15T02:03:39.955Z,-1.33
2018-01-15T02:04:39.969Z,-1.29
2018-01-15T02:05:39.886Z,-1.26
2018-01-15T02:06:39.854Z,-1.31
2018-01-15T02:07:39.819Z,-1.28
2018-01-15T02:08:39.778Z,-1.36
2018-01-15T02:09:39.750Z,-1.29
2018-01-15T02:10:39.709Z,-1.31
2018-01-15T02:11:39.675Z,-1.29
2018-01-15T02:12:39.639Z,-1.29
2018-01-15T02:13:39.611Z,-1.17
2018-01-15T02:14:39.572Z,-1.32
2018-01-15T02:15:39.534Z,-1.31
2018-01-15T02:16:39.505Z,-1.29
2018-01-15T02:17:39.462Z,-1.20
2018-01-15T02:18:39.430Z,-1.33
2018-01-15T02:19:39.388Z,-1.35
2018-01-15T02:20:39.355Z,-1.32
2018-01-15T02:21:39.324Z,-1.31
2018-01-15T02:22:39.291Z,-1.35
2018-01-15T02:23:39.249Z,-1.29
2018-01-15T02:24:39.213Z,-1.35
2018-01-15T02:25:39.178Z,-1.33
2018-01-15T02:26:39.150Z,-1.38
2018-01-15T02:27:39.114Z,-1.33
2018-01-15T02:28:39.071Z,-1.31
2018-01-15T02:29:39.043Z,-1.31
2018-01-15T02:30:39.009Z,-1.31
2018-01-15T02:31:38.971Z,-1.32
2018-01-15T02:32:38.942Z,-1.32
2018-01-15T02:33:38.940Z,-1.32
2018-01-15T02:34:38.865Z,-1.39
2018-01-15T02:35:38.830Z,-1.36
2018-01-15T02:36:38.823Z,-1.26
2018-01-15T02:37:38.758Z,-1.17
2018-01-15T02:38:38.720Z,-1.29
2018-01-15T02:39:38.684Z,-1.32
2018-01-15T02:40:38.660Z,-1.18
2018-01-15T02:41:38.620Z,-1.18
2018-01-15T02:42:38.578Z,-1.18
2018-01-15T02:43:38.541Z,-1.31
2018-01-15T02:44:38.513Z,-1.21
2018-01-15T02:45:38.475Z,-1.32
2018-01-15T02:46:38.442Z,-1.31
2018-01-15T02:47:38.408Z,-1.28
2018-01-15T02:48:38.371Z,-1.33
2018-01-15T02:49:38.332Z,-1.31
2018-01-15T02:50:38.299Z,-1.18
2018-01-15T02:51:38.260Z,-1.23
2018-01-15T02:52:38.228Z,-1.28
2018-01-15T02:53:38.189Z,-1.20
2018-01-15T02:54:38.153Z,-1.20
2018-01-15T02:55:38.124Z,-1.14
2018-01-15T02:56:38.082Z,-1.21
2018-01-15T02:57:38.362Z,-1.15
2018-01-15T02:58:38.017Z,-1.26
2018-01-15T02:59:37.976Z,-1.21
2018-01-15T03:00:37.942Z,-1.23
2018-01-15T03:01:37.916Z,-1.18
2018-01-15T03:02:37.879Z,-1.14
2018-01-15T03:03:37.835Z,-1.18
2018-01-15T03:04:37.806Z,-1.15
2018-01-15T03:05:37.764Z,-1.14
2018-01-15T03:06:37.731Z,-1.13
2018-01-15T03:07:37.703Z,-1.21
2018-01-15T03:08:37.664Z,-1.18
2018-01-15T03:09:37.634Z,-1.26
2018-01-15T03:10:37.590Z,-1.21
2018-01-15T03:11:37.552Z,-1.18
2018-01-15T03:12:37.525Z,-1.20
2018-01-15T03:13:37.495Z,-1.13
2018-01-15T03:14:37.703Z,-1.14
2018-01-15T03:15:37.416Z,-1.14
2018-01-15T03:16:37.384Z,-1.17
2018-01-15T03:17:37.357Z,-1.13
2018-01-15T03:18:37.305Z,-1.11
2018-01-15T03:19:37.275Z,-1.21
2018-01-15T03:20:37.243Z,-1.14
2018-01-15T03:21:37.218Z,-1.18
2018-01-15T03:22:37.168Z,-1.14
2018-01-15T03:23:37.130Z,-1.13
2018-01-15T03:24:37.100Z,-1.20
2018-01-15T03:25:37.059Z,-1.15
2018-01-15T03:26:37.032Z,-1.21
2018-01-15T03:27:36.986Z,-1.07
2018-01-15T03:28:36.956Z,-1.08
2018-01-15T03:29:36.917Z,-1.17
2018-01-15T03:30:36.890Z,-1.14
2018-01-15T03:31:36.856Z,-1.14
2018-01-15T03:32:37.163Z,-1.18
2018-01-15T03:33:36.781Z,-1.11
2018-01-15T03:34:36.744Z,-1.18
2018-01-15T03:35:36.712Z,-1.11
2018-01-15T03:36:36.675Z,-1.14
2018-01-15T03:37:36.646Z,-1.17
2018-01-15T03:38:36.610Z,-1.23
2018-01-15T03:39:36.569Z,-1.18
2018-01-15T03:40:36.536Z,-1.17
2018-01-15T03:41:36.498Z,-1.13
2018-01-15T03:42:36.467Z,-1.10
2018-01-15T03:43:36.424Z,-1.11
2018-01-15T03:44:36.395Z,-1.08
2018-01-15T03:45:36.363Z,-1.02
2018-01-15T03:46:36.326Z,-1.02
2018-01-15T03:47:36.282Z,-1.15
2018-01-15T03:48:36.254Z,-1.10
2018-01-15T03:49:36.217Z,-1.08
2018-01-15T03:50:36.177Z,-1.15
2018-01-15T03:51:36.158Z,-1.20
2018-01-15T03:52:36.108Z,-1.07
2018-01-15T03:53:36.081Z,-1.15
2018-01-15T03:54:36.045Z,-1.17
2018-01-15T03:55:36.011Z,-1.17
2018-01-15T03:56:35.975Z,-1.08
2018-01-15T03:57:35.932Z,-1.20
2018-01-15T03:58:35.901Z,-1.10
2018-01-15T03:59:35.861Z,-1.13
2018-01-15T04:00:35.825Z,-1.17
2018-01-15T04:01:35.789Z,-1.07
2018-01-15T04:02:36.054Z,-1.13
2018-01-15T04:03:35.721Z,-1.11
2018-01-15T04:04:35.690Z,-1.15
2018-01-15T04:05:35.650Z,-1.18
2018-01-15T04:06:35.619Z,-1.18
2018-01-15T04:07:35.579Z,-1.18
2018-01-15T04:08:35.552Z,-1.07
2018-01-15T04:09:35.508Z,-1.14
2018-01-15T04:10:35.471Z,-1.17
2018-01-15T04:11:35.446Z,-1.18
2018-01-15T04:12:35.402Z,-1.14
2018-01-15T04:13:35.373Z,-1.05
2018-01-15T04:14:35.638Z,-1.11
2018-01-15T04:15:35.303Z,-1.10
2018-01-15T04:16:35.261Z,-1.10
2018-01-15T04:17:35.232Z,-1.18
2018-01-15T04:18:35.192Z,-1.11
2018-01-15T04:19:35.164Z,-1.11
2018-01-15T04:20:35.125Z,-1.18
2018-01-15T04:21:35.098Z,-1.10
2018-01-15T04:22:35.050Z,-1.13
2018-01-15T04:23:35.017Z,-1.14
2018-01-15T04:24:34.982Z,-1.07
2018-01-15T04:25:34.950Z,-1.07
2018-01-15T04:26:34.912Z,-1.05
2018-01-15T04:27:34.875Z,-1.18
2018-01-15T04:28:34.855Z,-1.20
2018-01-15T04:29:34.810Z,-1.17
2018-01-15T04:30:34.767Z,-1.13
2018-01-15T04:31:35.083Z,-1.18
2018-01-15T04:32:34.699Z,-1.15
2018-01-15T04:33:34.662Z,-1.14
2018-01-15T04:34:34.642Z,-1.18
2018-01-15T04:35:34.598Z,-1.20
2018-01-15T04:36:34.558Z,-1.17
2018-01-15T04:37:34.526Z,-1.13
2018-01-15T04:38:34.489Z,-1.15
2018-01-15T04:39:34.450Z,-1.18
2018-01-15T04:40:34.423Z,-1.08
2018-01-15T04:41:34.380Z,-1.11
2018-01-15T04:42:34.357Z,-1.13
2018-01-15T04:43:34.311Z,-1.07
2018-01-15T04:44:34.283Z,-1.13
2018-01-15T04:45:34.246Z,-1.02
2018-01-15T04:46:34.204Z,-1.14
2018-01-15T04:47:34.173Z,-1.13
2018-01-15T04:48:34.134Z,-1.03
2018-01-15T04:49:34.100Z,-1.10
2018-01-15T04:50:34.079Z,-1.07
2018-01-15T04:51:34.033Z,-1.10
2018-01-15T04:52:34.002Z,-1.03
2018-01-15T04:53:33.964Z,-1.08
2018-01-15T04:54:33.949Z,-1.11
2018-01-15T04:55:33.894Z,-1.08
2018-01-15T04:56:33.858Z,-1.08
2018-01-15T04:57:33.817Z,-1.03
2018-01-15T04:58:33.781Z,-1.14
2018-01-15T04:59:33.746Z,-1.10
2018-01-15T05:00:33.712Z,-1.13
2018-01-15T05:01:33.683Z,-1.13
2018-01-15T05:02:33.643Z,-1.07
2018-01-15T05:03:33.613Z,-1.00
2018-01-15T05:04:33.576Z,-1.08
2018-01-15T05:05:33.548Z,-1.07
2018-01-15T05:06:33.509Z,-1.03
2018-01-15T05:07:33.465Z,-1.11
2018-01-15T05:08:33.430Z,-1.05
2018-01-15T05:09:33.404Z,-1.11
2018-01-15T05:10:33.365Z,-1.05
2018-01-15T05:11:33.329Z,-1.07
2018-01-15T05:12:33.288Z,-1.03
2018-01-15T05:13:33.261Z,-1.00
2018-01-15T05:14:33.218Z,-1.02
2018-01-15T05:15:33.192Z,-1.00
2018-01-15T05:16:33.154Z,-1.00
2018-01-15T05:17:33.370Z,-1.03
2018-01-15T05:18:33.084Z,-1.00
2018-01-15T05:19:33.055Z,-1.00
2018-01-15T05:20:33.007Z,-0.97
2018-01-15T05:21:32.986Z,-0.99
2018-01-15T05:22:32.942Z,-0.97
2018-01-15T05:23:32.904Z,-0.89
2018-01-15T05:24:32.868Z,-0.93
2018-01-15T05:25:32.839Z,-1.00
2018-01-15T05:26:32.798Z,-1.07
2018-01-15T05:27:32.762Z,-1.03
2018-01-15T05:28:32.726Z,-0.93
2018-01-15T05:29:32.698Z,-0.95
2018-01-15T05:30:32.663Z,-0.86
2018-01-15T05:31:32.621Z,-0.95
2018-01-15T05:32:32.593Z,-0.86
2018-01-15T05:33:32.554Z,-0.85
2018-01-15T05:34:32.823Z,-0.92
2018-01-15T05:35:32.487Z,-0.83
2018-01-15T05:36:32.445Z,-0.90
2018-01-15T05:37:32.414Z,-0.92
2018-01-15T05:38:32.382Z,-0.83
2018-01-15T05:39:32.346Z,-0.86
2018-01-15T05:40:32.312Z,-0.80
2018-01-15T05:41:32.273Z,-0.80
2018-01-15T05:42:32.243Z,-0.80
2018-01-15T05:43:32.207Z,-0.89
2018-01-15T05:44:32.169Z,-0.92
2018-01-15T05:45:32.142Z,-0.86
2018-01-15T05:46:32.095Z,-0.85
2018-01-15T05:47:32.065Z,-0.89
2018-01-15T05:48:32.027Z,-0.89
2018-01-15T05:49:31.990Z,-0.85
2018-01-15T05:50:31.961Z,-0.86
2018-01-15T05:51:31.925Z,-0.90
2018-01-15T05:52:31.888Z,-0.85
2018-01-15T05:53:31.849Z,-0.93
2018-01-15T05:54:31.817Z,-0.86
2018-01-15T05:55:31.786Z,-0.92
2018-01-15T05:56:31.754Z,-0.78
2018-01-15T05:57:31.717Z,-0.85
2018-01-15T05:58:32.633Z,-0.74
2018-01-15T05:59:31.649Z,-0.74
2018-01-15T06:00:31.607Z,-0.83
2018-01-15T06:01:31.576Z,-0.83
2018-01-15T06:02:31.541Z,-0.76
2018-01-15T06:03:31.511Z,-0.71
2018-01-15T06:04:31.768Z,-0.63
2018-01-15T06:05:31.437Z,-0.78
2018-01-15T06:06:31.402Z,-0.73
2018-01-15T06:07:31.360Z,-0.78
2018-01-15T06:08:31.335Z,-0.76
2018-01-15T06:09:31.289Z,-0.71
2018-01-15T06:10:31.263Z,-0.63
2018-01-15T06:11:31.223Z,-0.73
2018-01-15T06:12:31.190Z,-0.71
2018-01-15T06:13:31.151Z,-0.62
2018-01-15T06:14:31.123Z,-0.71
2018-01-15T06:15:31.083Z,-0.62
2018-01-15T06:16:31.049Z,-0.63
2018-01-15T06:17:31.010Z,-0.65
2018-01-15T06:18:30.976Z,-0.73
2018-01-15T06:19:30.950Z,-0.78
2018-01-15T06:20:30.906Z,-0.77
2018-01-15T06:21:30.873Z,-0.70
2018-01-15T06:22:30.842Z,-0.70
2018-01-15T06:23:30.804Z,-0.71
2018-01-15T06:24:30.780Z,-0.80
2018-01-15T06:25:30.733Z,-0.76
2018-01-15T06:26:30.705Z,-0.78
2018-01-15T06:27:30.660Z,-0.71
2018-01-15T06:28:30.625Z,-0.73
2018-01-15T06:29:30.597Z,-0.76
2018-01-15T06:30:30.565Z,-0.71
2018-01-15T06:31:30.526Z,-0.74
2018-01-15T06:32:30.492Z,-0.63
2018-01-15T06:33:30.458Z,-0.55
2018-01-15T06:34:30.428Z,-0.59
2018-01-15T06:35:30.381Z,-0.53
2018-01-15T06:36:30.346Z,-0.49
2018-01-15T06:37:30.317Z,-0.47
2018-01-15T06:38:30.595Z,-0.45
2018-01-15T06:39:30.243Z,-0.39
2018-01-15T06:40:30.214Z,-0.37
2018-01-15T06:41:30.172Z,-0.32
2018-01-15T06:42:30.140Z,-0.37
2018-01-15T06:43:30.108Z,-0.32
2018-01-15T06:44:30.070Z,-0.37
2018-01-15T06:45:30.044Z,-0.32
2018-01-15T06:46:29.998Z,-0.37
2018-01-15T06:47:29.967Z,-0.31
2018-01-15T06:48:29.930Z,-0.37
2018-01-15T06:49:29.902Z,-0.31
2018-01-15T06:50:29.868Z,-0.31
2018-01-15T06:51:29.831Z,-0.37
2018-01-15T06:52:29.793Z,-0.35
2018-01-15T06:53:29.756Z,-0.35
2018-01-15T06:54:29.722Z,-0.34
2018-01-15T06:55:29.700Z,-0.34
2018-01-15T06:56:29.659Z,-0.35
2018-01-15T06:57:29.621Z,-0.35
2018-01-15T06:58:29.596Z,-0.34
2018-01-15T06:59:29.553Z,-0.32
2018-01-15T07:00:29.526Z,-0.32
2018-01-15T07:01:29.481Z,-0.45
2018-01-15T07:02:29.458Z,-0.30
2018-01-15T07:03:29.420Z,-0.34
2018-01-15T07:04:29.401Z,-0.41
2018-01-15T07:05:29.358Z,-0.38
2018-01-15T07:06:29.317Z,-0.38
2018-01-15T07:07:29.277Z,-0.37
2018-01-15T07:08:29.246Z,-0.39
2018-01-15T07:09:29.214Z,-0.30
2018-01-15T07:10:29.184Z,-0.34
2018-01-15T07:11:29.135Z,-0.35
2018-01-15T07:12:29.116Z,-0.35
2018-01-15T07:13:29.068Z,-0.35
2018-01-15T07:14:29.040Z,-0.37
2018-01-15T07:15:28.998Z,-0.37
2018-01-15T07:16:28.973Z,-0.38
2018-01-15T07:17:28.929Z,-0.20
2018-01-15T07:18:28.907Z,-0.20
2018-01-15T07:19:28.858Z,-0.24
2018-01-15T07:20:28.827Z,-0.32
2018-01-15T07:21:28.800Z,-0.24
2018-01-15T07:22:28.768Z,-0.17
2018-01-15T07:23:28.728Z,-0.16
2018-01-15T07:24:28.693Z,-0.17
2018-01-15T07:25:28.652Z,-0.16
2018-01-15T07:26:28.627Z,-0.27
2018-01-15T07:27:28.585Z,-0.20
2018-01-15T07:28:28.564Z,-0.27
2018-01-15T07:29:28.516Z,-0.09
2018-01-15T07:30:28.483Z,-0.17
2018-01-15T07:31:28.453Z,-0.21
2018-01-15T07:32:28.425Z,-0.08
2018-01-15T07:33:28.376Z,-0.03
2018-01-15T07:34:28.353Z,-0.01
2018-01-15T07:35:28.349Z,0.04
2018-01-15T07:36:28.282Z,0.04
2018-01-15T07:37:28.248Z,0.01
2018-01-15T07:38:28.216Z,0.04
2018-01-15T07:39:28.175Z,0.17
2018-01-15T07:40:28.136Z,0.19
2018-01-15T07:41:28.111Z,0.16
2018-01-15T07:42:28.073Z,0.37
2018-01-15T07:43:28.033Z,0.33
2018-01-15T07:44:28.005Z,0.25
2018-01-15T07:45:27.969Z,0.37
2018-01-15T07:46:27.941Z,0.33
2018-01-15T07:47:27.906Z,0.33
2018-01-15T07:48:27.863Z,0.41
2018-01-15T07:49:27.830Z,0.44
2018-01-15T07:50:27.797Z,0.48
2018-01-15T07:51:27.761Z,0.44
2018-01-15T07:52:27.734Z,0.44
2018-01-15T07:53:27.691Z,0.43
2018-01-15T07:54:27.656Z,0.37
2018-01-15T07:55:27.670Z,0.44
2018-01-15T07:56:27.591Z,0.38
2018-01-15T07:57:27.568Z,0.41
2018-01-15T07:58:27.531Z,0.43
2018-01-15T07:59:27.505Z,0.43
2018-01-15T08:00:27.458Z,0.49
2018-01-15T08:01:27.432Z,0.43
2018-01-15T08:02:27.394Z,0.45
2018-01-15T08:03:27.393Z,0.45
2018-01-15T08:04:27.327Z,0.45
2018-01-15T08:05:27.292Z,0.41
2018-01-15T08:06:27.268Z,0.45
2018-01-15T08:07:27.223Z,0.49
2018-01-15T08:08:27.187Z,0.44
2018-01-15T08:09:27.194Z,0.48
2018-01-15T08:10:27.122Z,0.52
2018-01-15T08:11:27.084Z,0.59
2018-01-15T08:12:27.056Z,0.60
2018-01-15T08:13:27.021Z,0.60
2018-01-15T08:14:26.987Z,0.59
2018-01-15T08:15:26.958Z,0.60
2018-01-15T08:16:26.934Z,0.68
2018-01-15T08:17:26.893Z,0.63
2018-01-15T08:18:26.851Z,0.72
2018-01-15T08:19:26.817Z,0.60
2018-01-15T08:20:26.783Z,0.74
2018-01-15T08:21:26.750Z,0.72
2018-01-15T08:22:26.729Z,0.72
2018-01-15T08:23:26.696Z,0.74
2018-01-15T08:24:26.661Z,0.74
2018-01-15T08:25:26.623Z,0.72
2018-01-15T08:26:26.592Z,0.77
2018-01-15T08:27:26.590Z,0.70
2018-01-15T08:28:26.523Z,0.75
2018-01-15T08:29:26.486Z,0.77
2018-01-15T08:30:26.467Z,0.78
2018-01-15T08:31:26.421Z,0.75
2018-01-15T08:32:26.392Z,0.84
2018-01-15T08:33:26.402Z,0.81
2018-01-15T08:34:26.325Z,0.80
2018-01-15T08:35:26.293Z,0.90
2018-01-15T08:36:26.275Z,0.93
2018-01-15T08:37:26.228Z,0.78
2018-01-15T08:38:26.239Z,0.80
2018-01-15T08:39:26.173Z,0.78
2018-01-15T08:40:26.121Z,0.89
2018-01-15T08:41:26.089Z,0.82
2018-01-15T08:42:26.098Z,0.86
2018-01-15T08:43:26.021Z,0.84
2018-01-15T08:44:25.992Z,1.02
2018-01-15T08:45:25.963Z,0.95
2018-01-15T08:46:25.928Z,0.95
2018-01-15T08:47:25.896Z,0.98
2018-01-15T08:48:25.864Z,1.00
2018-01-15T08:49:25.836Z,0.98
2018-01-15T08:50:25.800Z,1.00
2018-01-15T08:51:25.761Z,1.02
2018-01-15T08:52:25.725Z,0.98
2018-01-15T08:53:25.696Z,1.13
2018-01-15T08:54:25.673Z,0.95
2018-01-15T08:55:25.639Z,1.06
2018-01-15T08:56:25.609Z,1.00
2018-01-15T08:57:25.585Z,1.04
2018-01-15T08:58:25.529Z,0.99
2018-01-15T08:59:25.501Z,1.06
2018-01-15T09:00:25.463Z,1.00
2018-01-15T09:01:25.437Z,1.08
2018-01-15T09:02:25.401Z,1.07
2018-01-15T09:03:25.363Z,1.20
2018-01-15T09:04:25.343Z,1.07
2018-01-15T09:05:25.312Z,1.16
2018-01-15T09:06:25.267Z,1.16
2018-01-15T09:07:25.237Z,1.16
2018-01-15T09:08:25.206Z,1.21
2018-01-15T09:09:25.188Z,1.25
2018-01-15T09:10:25.149Z,1.18
2018-01-15T09:11:25.106Z,1.21
2018-01-15T09:12:25.081Z,1.20
2018-01-15T09:13:25.055Z,1.18
2018-01-15T09:14:25.050Z,1.25
2018-01-15T09:15:24.974Z,1.25
2018-01-15T09:16:24.957Z,1.35
2018-01-15T09:17:24.907Z,1.21
2018-01-15T09:18:24.895Z,1.31
2018-01-15T09:19:24.853Z,1.25
2018-01-15T09:20:24.812Z,1.34
2018-01-15T09:21:24.796Z,1.36
2018-01-15T09:22:24.753Z,1.47
2018-01-15T09:23:24.722Z,1.39
2018-01-15T09:24:24.690Z,1.44
2018-01-15T09:25:24.655Z,1.54
2018-01-15T09:26:24.624Z,1.56
2018-01-15T09:27:24.885Z,1.52
2018-01-15T09:28:24.550Z,1.53
2018-01-15T09:29:24.558Z,1.52
2018-01-15T09:30:24.496Z,1.57
2018-01-15T09:31:24.466Z,1.46
2018-01-15T09:32:24.424Z,1.56
2018-01-15T09:33:24.422Z,1.56
2018-01-15T09:34:24.372Z,1.60
2018-01-15T09:35:24.341Z,1.61
2018-01-15T09:36:24.292Z,1.61
2018-01-15T09:37:24.262Z,1.71
2018-01-15T09:38:24.246Z,1.61
2018-01-15T09:39:24.209Z,1.64
2018-01-15T09:40:24.179Z,1.61
2018-01-15T09:41:24.137Z,1.63
2018-01-15T09:42:24.113Z,1.67
2018-01-15T09:43:24.081Z,1.70
2018-01-15T09:44:24.047Z,1.63
2018-01-15T09:45:24.013Z,1.63
2018-01-15T09:46:23.995Z,1.64
2018-01-15T09:47:23.945Z,1.70
2018-01-15T09:48:23.912Z,1.63
2018-01-15T09:49:23.891Z,1.61
2018-01-15T09:50:23.862Z,1.72
2018-01-15T09:51:23.814Z,1.65
2018-01-15T09:52:23.783Z,1.72
2018-01-15T09:53:23.753Z,1.75
2018-01-15T09:54:23.740Z,1.71
2018-01-15T09:55:23.697Z,1.79
2018-01-15T09:56:23.656Z,1.88
2018-01-15T09:57:23.876Z,1.85
2018-01-15T09:58:23.613Z,1.82
2018-01-15T09:59:23.566Z,1.79
2018-01-15T10:00:23.527Z,1.86
2018-01-15T10:01:23.502Z,1.82
2018-01-15T10:02:23.465Z,1.82
2018-01-15T10:03:23.435Z,1.88
2018-01-15T10:04:23.407Z,1.92
2018-01-15T10:05:23.390Z,1.88
2018-01-15T10:06:23.343Z,1.90
2018-01-15T10:07:23.310Z,1.82
2018-01-15T10:08:23.282Z,1.86
2018-01-15T10:09:23.244Z,1.85
2018-01-15T10:10:23.218Z,1.90
2018-01-15T10:11:23.182Z,1.90
2018-01-15T10:12:23.149Z,1.90
2018-01-15T10:13:23.121Z,1.83
2018-01-15T10:14:23.133Z,1.88
2018-01-15T10:15:23.090Z,1.93
2018-01-15T10:16:23.021Z,1.89
2018-01-15T10:17:22.989Z,2.01
2018-01-15T10:18:22.960Z,2.02
2018-01-15T10:19:22.950Z,2.01
2018-01-15T10:20:22.908Z,2.00
2018-01-15T10:21:22.867Z,2.08
2018-01-15T10:22:22.831Z,2.05
2018-01-15T10:23:22.814Z,2.05
2018-01-15T10:24:22.770Z,2.12
2018-01-15T10:25:22.733Z,2.22
2018-01-15T10:26:22.708Z,2.32
2018-01-15T10:27:22.675Z,2.32
2018-01-15T10:28:22.638Z,2.32
2018-01-15T10:29:22.604Z,2.40
2018-01-15T10:30:22.613Z,2.32
2018-01-15T10:31:22.544Z,2.38
2018-01-15T10:32:22.532Z,2.36
2018-01-15T10:33:22.482Z,2.36
2018-01-15T10:34:22.447Z,2.43
2018-01-15T10:35:22.426Z,2.41
2018-01-15T10:36:22.383Z,2.41
2018-01-15T10:37:22.378Z,2.43
2018-01-15T10:38:22.336Z,2.48
2018-01-15T10:39:22.305Z,2.58
2018-01-15T10:40:22.260Z,2.51
2018-01-15T10:41:22.240Z,2.55
2018-01-15T10:42:22.203Z,2.59
2018-01-15T10:43:22.174Z,2.56
2018-01-15T10:44:22.148Z,2.58
2018-01-15T10:45:22.109Z,2.65
2018-01-15T10:46:22.079Z,2.55
2018-01-15T10:47:22.069Z,2.50
2018-01-15T10:48:22.011Z,2.59
2018-01-15T10:49:22.008Z,2.62
2018-01-15T10:50:21.948Z,2.59
2018-01-15T10:51:21.925Z,2.56
2018-01-15T10:52:21.884Z,2.56
2018-01-15T10:53:21.855Z,2.68
2018-01-15T10:54:21.823Z,2.59
2018-01-15T10:55:21.806Z,2.71
2018-01-15T10:56:21.763Z,2.66
2018-01-15T10:57:21.735Z,2.65
2018-01-15T10:58:21.703Z,2.58
2018-01-15T10:59:21.708Z,2.66
2018-01-15T11:00:21.642Z,2.62
2018-01-15T11:01:21.606Z,2.68
2018-01-15T11:02:21.585Z,2.65
2018-01-15T11:03:21.556Z,2.71
2018-01-15T11:04:21.547Z,2.79
2018-01-15T11:05:21.494Z,2.83
2018-01-15T11:06:21.495Z,2.76
2018-01-15T11:07:21.423Z,2.81
2018-01-15T11:08:21.394Z,2.80
2018-01-15T11:09:21.364Z,2.94
2018-01-15T11:10:21.330Z,2.80
2018-01-15T11:11:21.306Z,2.84
2018-01-15T11:12:21.272Z,2.92
2018-01-15T11:13:21.245Z,2.89
2018-01-15T11:14:21.215Z,2.95
2018-01-15T11:15:21.174Z,2.92
2018-01-15T11:16:21.160Z,2.90
2018-01-15T11:17:21.118Z,2.84
2018-01-15T11:18:21.090Z,2.94
2018-01-15T11:19:21.064Z,2.90
2018-01-15T11:20:21.032Z,2.86
2018-01-15T11:21:20.995Z,3.01
2018-01-15T11:22:20.974Z,2.99
2018-01-15T11:23:20.934Z,3.13
2018-01-15T11:24:20.897Z,3.16
2018-01-15T11:25:20.865Z,3.22
2018-01-15T11:26:20.852Z,3.05
2018-01-15T11:27:20.809Z,3.20
2018-01-15T11:28:20.891Z,3.22
2018-01-15T11:29:20.742Z,3.26
2018-01-15T11:30:20.719Z,3.23
2018-01-15T11:31:20.681Z,3.20
2018-01-15T11:32:20.661Z,3.19
2018-01-15T11:33:20.628Z,3.13
2018-01-15T11:34:20.598Z,3.16
2018-01-15T11:35:20.579Z,3.19
2018-01-15T11:36:20.535Z,3.30
2018-01-15T11:37:21.308Z,3.31
2018-01-15T11:38:20.469Z,3.34
2018-01-15T11:39:20.445Z,3.26
2018-01-15T11:40:20.425Z,3.28
2018-01-15T11:41:20.384Z,3.30
2018-01-15T11:42:20.353Z,3.35
2018-01-15T11:43:20.319Z,3.34
2018-01-15T11:44:20.288Z,3.30
2018-01-15T11:45:20.258Z,3.39
2018-01-15T11:46:20.234Z,3.34
2018-01-15T11:47:20.228Z,3.41
2018-01-15T11:48:20.167Z,3.39
2018-01-15T11:49:20.135Z,3.46
2018-01-15T11:50:20.106Z,3.41
2018-01-15T11:51:20.116Z,3.63
2018-01-15T11:52:20.051Z,3.62
2018-01-15T11:53:20.014Z,3.64
2018-01-15T11:54:19.984Z,3.71
2018-01-15T11:55:19.953Z,3.81
2018-01-15T11:56:19.926Z,3.80
2018-01-15T11:57:19.901Z,3.75
2018-01-15T11:58:19.866Z,3.74
2018-01-15T11:59:20.091Z,3.80
2018-01-15T12:00:19.803Z,3.74
2018-01-15T12:01:19.781Z,3.82
2018-01-15T12:02:19.751Z,3.82
2018-01-15T12:03:19.721Z,3.77
2018-01-15T12:04:19.690Z,3.86
2018-01-15T12:05:19.662Z,3.84
2018-01-15T12:06:19.625Z,3.92
2018-01-15T12:07:19.595Z,3.92
2018-01-15T12:08:19.565Z,3.89
2018-01-15T12:09:19.542Z,3.92
2018-01-15T12:10:19.508Z,4.04
2018-01-15T12:11:19.476Z,4.07
2018-01-15T12:12:19.453Z,4.10
2018-01-15T12:13:19.416Z,4.14
2018-01-15T12:14:19.399Z,4.08
2018-01-15T12:15:19.396Z,4.13
2018-01-15T12:16:19.392Z,4.10
2018-01-15T12:17:19.299Z,4.21
2018-01-15T12:18:19.282Z,4.07
2018-01-15T12:19:19.242Z,4.24
2018-01-15T12:20:19.211Z,4.42
2018-01-15T12:21:19.179Z,4.59
2018-01-15T12:22:19.149Z,4.68
2018-01-15T12:23:19.120Z,4.59
2018-01-15T12:24:19.099Z,4.57
2018-01-15T12:25:19.087Z,4.83
2018-01-15T12:26:19.041Z,4.75
2018-01-15T12:27:19.008Z,4.77
2018-01-15T12:28:18.974Z,4.72
2018-01-15T12:29:18.944Z,4.59
2018-01-15T12:30:18.922Z,4.42
2018-01-15T12:31:18.892Z,4.39
2018-01-15T12:32:18.855Z,4.34
2018-01-15T12:33:18.836Z,4.21
2018-01-15T12:34:18.798Z,4.25
2018-01-15T12:35:19.277Z,4.28
2018-01-15T12:36:18.743Z,4.25
2018-01-15T12:37:18.712Z,4.29
2018-01-15T12:38:18.694Z,4.24
2018-01-15T12:39:18.651Z,4.25
2018-01-15T12:40:18.634Z,4.20
2018-01-15T12:41:18.846Z,4.26
2018-01-15T12:42:18.572Z,4.17
2018-01-15T12:43:18.533Z,4.21
2018-01-15T12:44:18.506Z,4.24
2018-01-15T12:45:18.486Z,4.21
2018-01-15T12:46:18.464Z,4.31
2018-01-15T12:47:18.415Z,4.25
2018-01-15T12:48:18.397Z,4.35
2018-01-15T12:49:18.373Z,4.29
2018-01-15T12:50:18.332Z,4.36
2018-01-15T12:51:18.324Z,4.26
2018-01-15T12:52:18.284Z,4.34
2018-01-15T12:53:18.254Z,4.26
2018-01-15T12:54:18.208Z,4.31
2018-01-15T12:55:18.194Z,4.28
2018-01-15T12:56:18.167Z,4.46
2018-01-15T12:57:18.125Z,4.44
2018-01-15T12:58:18.087Z,4.32
2018-01-15T12:59:18.060Z,4.35
2018-01-15T13:00:18.029Z,4.44
2018-01-15T13:01:17.999Z,4.42
2018-01-15T13:02:18.001Z,4.47
2018-01-15T13:03:17.945Z,4.36